sensor_id;sensor_type;location;lat;lon;timestamp;temperature;humidity
51637;DHT22;37713;53.254;6.460;2023-09-19T00:00:43;14.10;99.90
51637;DHT22;37713;53.254;6.460;2023-09-19T00:03:10;14.10;99.90
51637;DHT22;37713;53.254;6.460;2023-09-19T00:05:38;14.00;99.90
51637;DHT22;37713;53.254;6.460;2023-09-19T00:08:04;14.10;99.90
51637;DHT22;37713;53.254;6.460;2023-09-19T00:10:32;14.00;99.90
51637;DHT22;37713;53.254;6.460;2023-09-19T00:13:01;14.00;99.90
51637;DHT22;37713;53.254;6.460;2023-09-19T00:15:36;14.00;99.90
51637;DHT22;37713;53.254;6.460;2023-09-19T00:18:03;14.00;99.90
51637;DHT22;37713;53.254;6.460;2023-09-19T00:20:32;14.00;99.90
51637;DHT22;37713;53.254;6.460;2023-09-19T00:23:00;14.00;99.90
51637;DHT22;37713;53.254;6.460;2023-09-19T00:25:28;14.10;99.90
51637;DHT22;37713;53.254;6.460;2023-09-19T00:27:54;14.10;99.90
51637;DHT22;37713;53.254;6.460;2023-09-19T00:30:21;14.10;99.90
51637;DHT22;37713;53.254;6.460;2023-09-19T00:32:50;14.10;99.90
51637;DHT22;37713;53.254;6.460;2023-09-19T00:35:23;14.10;99.90
51637;DHT22;37713;53.254;6.460;2023-09-19T00:37:50;14.10;99.90
51637;DHT22;37713;53.254;6.460;2023-09-19T00:40:16;14.10;99.90
51637;DHT22;37713;53.254;6.460;2023-09-19T00:42:43;14.10;99.90
51637;DHT22;37713;53.254;6.460;2023-09-19T00:45:11;14.10;99.90
51637;DHT22;37713;53.254;6.460;2023-09-19T00:47:42;14.10;99.90
51637;DHT22;37713;53.254;6.460;2023-09-19T00:50:10;14.10;99.90
51637;DHT22;37713;53.254;6.460;2023-09-19T00:52:39;14.10;99.90
51637;DHT22;37713;53.254;6.460;2023-09-19T00:55:06;14.00;99.90
51637;DHT22;37713;53.254;6.460;2023-09-19T00:57:33;13.90;99.90
51637;DHT22;37713;53.254;6.460;2023-09-19T01:00:01;13.90;99.90
51637;DHT22;37713;53.254;6.460;2023-09-19T01:02:31;13.90;99.90
51637;DHT22;37713;53.254;6.460;2023-09-19T01:04:58;14.00;99.90
51637;DHT22;37713;53.254;6.460;2023-09-19T01:07:24;13.90;99.90
51637;DHT22;37713;53.254;6.460;2023-09-19T01:09:50;13.90;99.90
51637;DHT22;37713;53.254;6.460;2023-09-19T01:12:22;13.80;99.90
51637;DHT22;37713;53.254;6.460;2023-09-19T01:15:06;13.80;99.90
51637;DHT22;37713;53.254;6.460;2023-09-19T01:17:46;13.80;99.90
51637;DHT22;37713;53.254;6.460;2023-09-19T01:20:41;13.70;99.90
51637;DHT22;37713;53.254;6.460;2023-09-19T01:23:23;13.60;99.90
51637;DHT22;37713;53.254;6.460;2023-09-19T01:28:30;13.60;99.90
51637;DHT22;37713;53.254;6.460;2023-09-19T01:30:57;13.50;99.90
51637;DHT22;37713;53.254;6.460;2023-09-19T01:33:25;13.50;99.90
51637;DHT22;37713;53.254;6.460;2023-09-19T01:35:52;13.40;99.90
51637;DHT22;37713;53.254;6.460;2023-09-19T01:38:19;13.40;99.90
51637;DHT22;37713;53.254;6.460;2023-09-19T01:40:58;13.40;99.90
51637;DHT22;37713;53.254;6.460;2023-09-19T01:43:41;13.30;99.90
51637;DHT22;37713;53.254;6.460;2023-09-19T01:46:33;13.30;99.90
51637;DHT22;37713;53.254;6.460;2023-09-19T01:51:39;13.20;99.90
51637;DHT22;37713;53.254;6.460;2023-09-19T01:54:15;13.20;99.90
51637;DHT22;37713;53.254;6.460;2023-09-19T01:56:50;13.20;99.90
51637;DHT22;37713;53.254;6.460;2023-09-19T01:59:25;13.20;99.90
51637;DHT22;37713;53.254;6.460;2023-09-19T02:01:54;13.10;99.90
51637;DHT22;37713;53.254;6.460;2023-09-19T02:04:20;13.10;99.90
51637;DHT22;37713;53.254;6.460;2023-09-19T02:06:46;13.10;99.90
51637;DHT22;37713;53.254;6.460;2023-09-19T02:09:15;13.00;99.90
51637;DHT22;37713;53.254;6.460;2023-09-19T02:11:41;13.00;99.90
51637;DHT22;37713;53.254;6.460;2023-09-19T02:14:08;13.00;99.90
51637;DHT22;37713;53.254;6.460;2023-09-19T02:16:34;13.00;99.90
51637;DHT22;37713;53.254;6.460;2023-09-19T02:19:00;12.90;99.90
51637;DHT22;37713;53.254;6.460;2023-09-19T02:21:26;12.90;99.90
51637;DHT22;37713;53.254;6.460;2023-09-19T02:23:56;12.90;99.90
51637;DHT22;37713;53.254;6.460;2023-09-19T02:26:22;12.90;99.90
51637;DHT22;37713;53.254;6.460;2023-09-19T02:28:50;12.80;99.90
51637;DHT22;37713;53.254;6.460;2023-09-19T02:31:16;12.80;99.90
51637;DHT22;37713;53.254;6.460;2023-09-19T02:33:42;12.80;99.90
51637;DHT22;37713;53.254;6.460;2023-09-19T02:36:09;12.80;99.90
51637;DHT22;37713;53.254;6.460;2023-09-19T02:38:35;12.80;99.90
51637;DHT22;37713;53.254;6.460;2023-09-19T02:41:03;12.80;99.90
51637;DHT22;37713;53.254;6.460;2023-09-19T02:43:28;12.80;99.90
51637;DHT22;37713;53.254;6.460;2023-09-19T02:45:55;12.80;99.90
51637;DHT22;37713;53.254;6.460;2023-09-19T02:48:22;12.70;99.90
51637;DHT22;37713;53.254;6.460;2023-09-19T02:50:51;12.70;99.90
51637;DHT22;37713;53.254;6.460;2023-09-19T02:53:17;12.80;99.90
51637;DHT22;37713;53.254;6.460;2023-09-19T02:55:45;12.70;99.90
51637;DHT22;37713;53.254;6.460;2023-09-19T02:58:12;12.70;99.90
51637;DHT22;37713;53.254;6.460;2023-09-19T03:00:39;12.70;99.90
51637;DHT22;37713;53.254;6.460;2023-09-19T03:03:08;12.70;99.90
51637;DHT22;37713;53.254;6.460;2023-09-19T03:05:34;12.70;99.90
51637;DHT22;37713;53.254;6.460;2023-09-19T03:08:00;12.80;99.90
51637;DHT22;37713;53.254;6.460;2023-09-19T03:10:27;12.80;99.90
51637;DHT22;37713;53.254;6.460;2023-09-19T03:12:53;12.80;99.90
51637;DHT22;37713;53.254;6.460;2023-09-19T03:15:19;12.80;99.90
51637;DHT22;37713;53.254;6.460;2023-09-19T03:17:47;12.80;99.90
51637;DHT22;37713;53.254;6.460;2023-09-19T03:20:14;12.80;99.90
51637;DHT22;37713;53.254;6.460;2023-09-19T03:22:43;12.70;99.90
51637;DHT22;37713;53.254;6.460;2023-09-19T03:25:09;12.80;99.90
51637;DHT22;37713;53.254;6.460;2023-09-19T03:27:38;12.70;99.90
51637;DHT22;37713;53.254;6.460;2023-09-19T03:30:04;12.70;99.90
51637;DHT22;37713;53.254;6.460;2023-09-19T03:32:43;12.70;99.90
51637;DHT22;37713;53.254;6.460;2023-09-19T03:35:09;12.60;99.90
51637;DHT22;37713;53.254;6.460;2023-09-19T03:37:34;12.60;99.90
51637;DHT22;37713;53.254;6.460;2023-09-19T03:40:00;12.60;99.90
51637;DHT22;37713;53.254;6.460;2023-09-19T03:42:31;12.50;99.90
51637;DHT22;37713;53.254;6.460;2023-09-19T03:44:57;12.50;99.90
51637;DHT22;37713;53.254;6.460;2023-09-19T03:47:22;12.50;99.90
51637;DHT22;37713;53.254;6.460;2023-09-19T03:49:48;12.40;99.90
51637;DHT22;37713;53.254;6.460;2023-09-19T03:52:14;12.40;99.90
51637;DHT22;37713;53.254;6.460;2023-09-19T03:54:42;12.40;99.90
51637;DHT22;37713;53.254;6.460;2023-09-19T03:57:09;12.40;99.90
51637;DHT22;37713;53.254;6.460;2023-09-19T03:59:35;12.40;99.90
51637;DHT22;37713;53.254;6.460;2023-09-19T04:02:01;12.30;99.90
51637;DHT22;37713;53.254;6.460;2023-09-19T04:04:27;12.30;99.90
51637;DHT22;37713;53.254;6.460;2023-09-19T04:06:54;12.30;99.90
51637;DHT22;37713;53.254;6.460;2023-09-19T04:09:20;12.30;99.90
51637;DHT22;37713;53.254;6.460;2023-09-19T04:11:46;12.30;99.90
51637;DHT22;37713;53.254;6.460;2023-09-19T04:14:12;12.30;99.90
51637;DHT22;37713;53.254;6.460;2023-09-19T04:16:38;12.30;99.90
51637;DHT22;37713;53.254;6.460;2023-09-19T04:19:04;12.30;99.90
51637;DHT22;37713;53.254;6.460;2023-09-19T04:21:31;12.30;99.90
51637;DHT22;37713;53.254;6.460;2023-09-19T04:23:57;12.40;99.90
51637;DHT22;37713;53.254;6.460;2023-09-19T04:26:23;12.40;99.90
51637;DHT22;37713;53.254;6.460;2023-09-19T04:28:49;12.40;99.90
51637;DHT22;37713;53.254;6.460;2023-09-19T04:31:15;12.40;99.90
51637;DHT22;37713;53.254;6.460;2023-09-19T04:33:42;12.50;99.90
51637;DHT22;37713;53.254;6.460;2023-09-19T04:36:09;12.50;99.90
51637;DHT22;37713;53.254;6.460;2023-09-19T04:38:35;12.50;99.90
51637;DHT22;37713;53.254;6.460;2023-09-19T04:41:01;12.50;99.90
51637;DHT22;37713;53.254;6.460;2023-09-19T04:43:26;12.50;99.90
51637;DHT22;37713;53.254;6.460;2023-09-19T04:45:54;12.60;99.90
51637;DHT22;37713;53.254;6.460;2023-09-19T04:48:25;12.60;99.90
51637;DHT22;37713;53.254;6.460;2023-09-19T04:50:50;12.60;99.90
51637;DHT22;37713;53.254;6.460;2023-09-19T04:53:17;12.60;99.90
51637;DHT22;37713;53.254;6.460;2023-09-19T04:55:49;12.60;99.90
51637;DHT22;37713;53.254;6.460;2023-09-19T04:58:15;12.60;99.90
51637;DHT22;37713;53.254;6.460;2023-09-19T05:00:42;12.70;99.90
51637;DHT22;37713;53.254;6.460;2023-09-19T05:03:07;12.70;99.90
51637;DHT22;37713;53.254;6.460;2023-09-19T05:05:34;12.70;99.90
51637;DHT22;37713;53.254;6.460;2023-09-19T05:08:00;12.70;99.90
51637;DHT22;37713;53.254;6.460;2023-09-19T05:10:26;12.70;99.90
51637;DHT22;37713;53.254;6.460;2023-09-19T05:12:55;12.80;99.90
51637;DHT22;37713;53.254;6.460;2023-09-19T05:15:21;12.70;99.90
51637;DHT22;37713;53.254;6.460;2023-09-19T05:17:51;12.80;99.90
51637;DHT22;37713;53.254;6.460;2023-09-19T05:20:17;12.80;99.90
51637;DHT22;37713;53.254;6.460;2023-09-19T05:23:07;12.80;99.90
51637;DHT22;37713;53.254;6.460;2023-09-19T05:25:38;12.90;99.90
51637;DHT22;37713;53.254;6.460;2023-09-19T05:28:09;12.90;99.90
51637;DHT22;37713;53.254;6.460;2023-09-19T05:30:37;12.90;99.90
51637;DHT22;37713;53.254;6.460;2023-09-19T05:33:07;12.90;99.90
51637;DHT22;37713;53.254;6.460;2023-09-19T05:35:33;12.90;99.90
51637;DHT22;37713;53.254;6.460;2023-09-19T05:37:59;13.00;99.90
51637;DHT22;37713;53.254;6.460;2023-09-19T05:40:25;13.00;99.90
51637;DHT22;37713;53.254;6.460;2023-09-19T05:42:52;13.00;99.90
51637;DHT22;37713;53.254;6.460;2023-09-19T05:45:18;13.00;99.90
51637;DHT22;37713;53.254;6.460;2023-09-19T05:47:51;13.10;99.90
51637;DHT22;37713;53.254;6.460;2023-09-19T05:50:21;13.10;99.90
51637;DHT22;37713;53.254;6.460;2023-09-19T05:52:53;13.10;99.90
51637;DHT22;37713;53.254;6.460;2023-09-19T05:55:21;13.10;99.90
51637;DHT22;37713;53.254;6.460;2023-09-19T05:57:51;13.10;99.90
51637;DHT22;37713;53.254;6.460;2023-09-19T06:00:18;13.20;99.90
51637;DHT22;37713;53.254;6.460;2023-09-19T06:02:51;13.20;99.90
51637;DHT22;37713;53.254;6.460;2023-09-19T06:05:18;13.20;99.90
51637;DHT22;37713;53.254;6.460;2023-09-19T06:07:44;13.20;99.90
51637;DHT22;37713;53.254;6.460;2023-09-19T06:10:10;13.30;99.90
51637;DHT22;37713;53.254;6.460;2023-09-19T06:12:39;13.30;99.90
51637;DHT22;37713;53.254;6.460;2023-09-19T06:15:06;13.30;99.90
51637;DHT22;37713;53.254;6.460;2023-09-19T06:17:34;13.40;99.90
51637;DHT22;37713;53.254;6.460;2023-09-19T06:20:05;13.40;99.90
51637;DHT22;37713;53.254;6.460;2023-09-19T06:22:39;13.40;99.90
51637;DHT22;37713;53.254;6.460;2023-09-19T06:25:08;13.50;99.90
51637;DHT22;37713;53.254;6.460;2023-09-19T06:27:40;13.50;99.90
51637;DHT22;37713;53.254;6.460;2023-09-19T06:30:08;13.50;99.90
51637;DHT22;37713;53.254;6.460;2023-09-19T06:32:35;13.60;99.90
51637;DHT22;37713;53.254;6.460;2023-09-19T06:35:01;13.60;99.90
51637;DHT22;37713;53.254;6.460;2023-09-19T06:37:29;13.60;99.90
51637;DHT22;37713;53.254;6.460;2023-09-19T06:39:54;13.70;99.90
51637;DHT22;37713;53.254;6.460;2023-09-19T06:42:20;13.70;99.90
51637;DHT22;37713;53.254;6.460;2023-09-19T06:44:48;13.70;99.90
51637;DHT22;37713;53.254;6.460;2023-09-19T06:47:14;13.80;99.90
51637;DHT22;37713;53.254;6.460;2023-09-19T06:49:42;13.80;99.90
51637;DHT22;37713;53.254;6.460;2023-09-19T06:52:10;13.80;99.90
51637;DHT22;37713;53.254;6.460;2023-09-19T06:54:36;13.90;99.90
51637;DHT22;37713;53.254;6.460;2023-09-19T06:57:03;14.00;99.90
51637;DHT22;37713;53.254;6.460;2023-09-19T06:59:29;14.00;99.90
51637;DHT22;37713;53.254;6.460;2023-09-19T07:01:54;14.10;99.90
51637;DHT22;37713;53.254;6.460;2023-09-19T07:04:20;14.10;99.90
51637;DHT22;37713;53.254;6.460;2023-09-19T07:06:49;14.20;99.90
51637;DHT22;37713;53.254;6.460;2023-09-19T07:09:16;14.20;99.90
51637;DHT22;37713;53.254;6.460;2023-09-19T07:11:42;14.30;99.90
51637;DHT22;37713;53.254;6.460;2023-09-19T07:14:08;14.40;99.90
51637;DHT22;37713;53.254;6.460;2023-09-19T07:16:39;14.40;99.90
51637;DHT22;37713;53.254;6.460;2023-09-19T07:19:08;14.50;99.90
51637;DHT22;37713;53.254;6.460;2023-09-19T07:21:33;14.50;99.90
51637;DHT22;37713;53.254;6.460;2023-09-19T07:24:01;14.60;99.90
51637;DHT22;37713;53.254;6.460;2023-09-19T07:26:28;14.70;99.90
51637;DHT22;37713;53.254;6.460;2023-09-19T07:28:54;14.70;99.90
51637;DHT22;37713;53.254;6.460;2023-09-19T07:31:21;14.80;99.90
51637;DHT22;37713;53.254;6.460;2023-09-19T07:33:48;14.80;99.90
51637;DHT22;37713;53.254;6.460;2023-09-19T07:36:14;14.90;99.90
51637;DHT22;37713;53.254;6.460;2023-09-19T07:38:43;14.90;99.90
51637;DHT22;37713;53.254;6.460;2023-09-19T07:41:09;15.00;99.90
51637;DHT22;37713;53.254;6.460;2023-09-19T07:43:35;15.00;99.90
51637;DHT22;37713;53.254;6.460;2023-09-19T07:46:06;15.10;99.90
51637;DHT22;37713;53.254;6.460;2023-09-19T07:48:33;15.20;99.90
51637;DHT22;37713;53.254;6.460;2023-09-19T07:51:06;15.30;99.90
51637;DHT22;37713;53.254;6.460;2023-09-19T07:53:34;15.30;99.90
51637;DHT22;37713;53.254;6.460;2023-09-19T07:56:07;15.40;99.90
51637;DHT22;37713;53.254;6.460;2023-09-19T07:58:33;15.40;99.90
51637;DHT22;37713;53.254;6.460;2023-09-19T08:01:06;15.40;99.90
51637;DHT22;37713;53.254;6.460;2023-09-19T08:03:33;15.40;99.90
51637;DHT22;37713;53.254;6.460;2023-09-19T08:06:02;15.50;99.90
51637;DHT22;37713;53.254;6.460;2023-09-19T08:08:28;15.60;99.90
51637;DHT22;37713;53.254;6.460;2023-09-19T08:10:55;15.70;99.90
51637;DHT22;37713;53.254;6.460;2023-09-19T08:13:25;15.80;99.90
51637;DHT22;37713;53.254;6.460;2023-09-19T08:15:52;15.90;99.90
51637;DHT22;37713;53.254;6.460;2023-09-19T08:18:18;16.00;99.90
51637;DHT22;37713;53.254;6.460;2023-09-19T08:20:53;16.00;99.90
51637;DHT22;37713;53.254;6.460;2023-09-19T08:23:19;16.00;99.90
51637;DHT22;37713;53.254;6.460;2023-09-19T08:25:46;16.10;99.90
51637;DHT22;37713;53.254;6.460;2023-09-19T08:28:12;16.20;99.90
51637;DHT22;37713;53.254;6.460;2023-09-19T08:30:43;16.20;99.90
51637;DHT22;37713;53.254;6.460;2023-09-19T08:33:09;16.30;99.90
51637;DHT22;37713;53.254;6.460;2023-09-19T08:35:36;16.50;99.90
51637;DHT22;37713;53.254;6.460;2023-09-19T08:38:03;16.60;99.90
51637;DHT22;37713;53.254;6.460;2023-09-19T08:40:36;16.50;99.90
51637;DHT22;37713;53.254;6.460;2023-09-19T08:43:04;16.60;99.90
51637;DHT22;37713;53.254;6.460;2023-09-19T08:45:30;16.70;99.90
51637;DHT22;37713;53.254;6.460;2023-09-19T08:50:29;16.90;99.90
51637;DHT22;37713;53.254;6.460;2023-09-19T08:52:56;16.90;99.90
51637;DHT22;37713;53.254;6.460;2023-09-19T08:55:28;17.00;99.90
51637;DHT22;37713;53.254;6.460;2023-09-19T08:58:02;17.00;99.90
51637;DHT22;37713;53.254;6.460;2023-09-19T09:00:29;17.10;99.90
51637;DHT22;37713;53.254;6.460;2023-09-19T09:02:57;17.10;99.90
51637;DHT22;37713;53.254;6.460;2023-09-19T09:05:24;17.10;99.90
51637;DHT22;37713;53.254;6.460;2023-09-19T09:07:52;17.10;99.90
51637;DHT22;37713;53.254;6.460;2023-09-19T09:10:20;17.10;99.90
51637;DHT22;37713;53.254;6.460;2023-09-19T09:12:53;17.10;99.90
51637;DHT22;37713;53.254;6.460;2023-09-19T09:15:22;17.10;99.90
51637;DHT22;37713;53.254;6.460;2023-09-19T09:17:52;17.10;99.90
51637;DHT22;37713;53.254;6.460;2023-09-19T09:20:21;17.10;99.90
51637;DHT22;37713;53.254;6.460;2023-09-19T09:22:52;17.10;99.90
51637;DHT22;37713;53.254;6.460;2023-09-19T09:25:19;17.10;99.90
51637;DHT22;37713;53.254;6.460;2023-09-19T09:27:58;17.10;99.90
51637;DHT22;37713;53.254;6.460;2023-09-19T09:30:35;17.20;99.90
51637;DHT22;37713;53.254;6.460;2023-09-19T09:33:10;17.20;99.90
51637;DHT22;37713;53.254;6.460;2023-09-19T09:35:46;17.20;99.90
51637;DHT22;37713;53.254;6.460;2023-09-19T09:38:12;17.30;99.90
51637;DHT22;37713;53.254;6.460;2023-09-19T09:40:50;17.30;99.90
51637;DHT22;37713;53.254;6.460;2023-09-19T09:43:36;17.30;99.90
51637;DHT22;37713;53.254;6.460;2023-09-19T09:46:12;17.30;99.90
51637;DHT22;37713;53.254;6.460;2023-09-19T09:49:04;17.30;99.90
51637;DHT22;37713;53.254;6.460;2023-09-19T09:51:57;17.40;99.90
51637;DHT22;37713;53.254;6.460;2023-09-19T09:54:28;17.40;99.90
51637;DHT22;37713;53.254;6.460;2023-09-19T09:57:10;17.40;99.90
51637;DHT22;37713;53.254;6.460;2023-09-19T09:59:53;17.40;99.90
51637;DHT22;37713;53.254;6.460;2023-09-19T10:02:27;17.40;99.90
51637;DHT22;37713;53.254;6.460;2023-09-19T10:07:47;17.40;99.90
51637;DHT22;37713;53.254;6.460;2023-09-19T10:10:32;17.40;99.90
51637;DHT22;37713;53.254;6.460;2023-09-19T10:13:05;17.50;99.90
51637;DHT22;37713;53.254;6.460;2023-09-19T10:15:33;17.70;99.90
51637;DHT22;37713;53.254;6.460;2023-09-19T10:18:04;17.80;99.90
51637;DHT22;37713;53.254;6.460;2023-09-19T10:20:30;17.80;99.90
51637;DHT22;37713;53.254;6.460;2023-09-19T10:23:02;17.80;99.90
51637;DHT22;37713;53.254;6.460;2023-09-19T10:25:29;17.70;99.90
51637;DHT22;37713;53.254;6.460;2023-09-19T10:27:57;17.70;99.90
51637;DHT22;37713;53.254;6.460;2023-09-19T10:30:29;17.70;99.90
51637;DHT22;37713;53.254;6.460;2023-09-19T10:33:04;17.70;99.90
51637;DHT22;37713;53.254;6.460;2023-09-19T10:35:32;17.70;99.90
51637;DHT22;37713;53.254;6.460;2023-09-19T10:38:04;17.80;99.90
51637;DHT22;37713;53.254;6.460;2023-09-19T10:40:32;17.90;99.90
51637;DHT22;37713;53.254;6.460;2023-09-19T10:43:05;18.00;99.90
51637;DHT22;37713;53.254;6.460;2023-09-19T10:45:33;18.10;99.90
51637;DHT22;37713;53.254;6.460;2023-09-19T10:48:00;18.20;99.90
51637;DHT22;37713;53.254;6.460;2023-09-19T10:50:32;18.30;99.90
51637;DHT22;37713;53.254;6.460;2023-09-19T10:53:02;18.30;99.90
51637;DHT22;37713;53.254;6.460;2023-09-19T10:55:31;18.30;99.90
51637;DHT22;37713;53.254;6.460;2023-09-19T10:57:59;18.30;99.90
51637;DHT22;37713;53.254;6.460;2023-09-19T11:00:26;18.20;99.90
51637;DHT22;37713;53.254;6.460;2023-09-19T11:05:42;18.10;99.90
51637;DHT22;37713;53.254;6.460;2023-09-19T11:08:08;18.00;99.90
51637;DHT22;37713;53.254;6.460;2023-09-19T11:10:48;18.00;99.90
51637;DHT22;37713;53.254;6.460;2023-09-19T11:13:25;17.90;99.90
51637;DHT22;37713;53.254;6.460;2023-09-19T11:27:13;17.80;99.90
51637;DHT22;37713;53.254;6.460;2023-09-19T11:29:40;17.80;99.90
51637;DHT22;37713;53.254;6.460;2023-09-19T11:32:06;17.80;99.90
51637;DHT22;37713;53.254;6.460;2023-09-19T11:34:39;17.80;99.90
51637;DHT22;37713;53.254;6.460;2023-09-19T11:39:40;17.80;99.90
51637;DHT22;37713;53.254;6.460;2023-09-19T11:42:42;17.80;99.90
51637;DHT22;37713;53.254;6.460;2023-09-19T11:48:06;18.00;99.90
51637;DHT22;37713;53.254;6.460;2023-09-19T11:50:33;18.00;99.90
51637;DHT22;37713;53.254;6.460;2023-09-19T11:53:02;18.10;99.90
51637;DHT22;37713;53.254;6.460;2023-09-19T11:55:29;18.20;99.90
51637;DHT22;37713;53.254;6.460;2023-09-19T11:57:58;18.20;99.90
51637;DHT22;37713;53.254;6.460;2023-09-19T12:00:24;18.30;99.90
51637;DHT22;37713;53.254;6.460;2023-09-19T12:02:55;18.20;99.90
51637;DHT22;37713;53.254;6.460;2023-09-19T12:05:30;18.20;99.90
51637;DHT22;37713;53.254;6.460;2023-09-19T12:07:57;18.10;99.90
51637;DHT22;37713;53.254;6.460;2023-09-19T12:10:23;18.00;99.90
51637;DHT22;37713;53.254;6.460;2023-09-19T12:12:49;17.90;99.90
51637;DHT22;37713;53.254;6.460;2023-09-19T12:15:17;17.90;99.90
51637;DHT22;37713;53.254;6.460;2023-09-19T12:17:48;17.80;99.90
51637;DHT22;37713;53.254;6.460;2023-09-19T12:20:14;17.80;99.90
51637;DHT22;37713;53.254;6.460;2023-09-19T12:22:45;17.80;99.90
51637;DHT22;37713;53.254;6.460;2023-09-19T12:25:14;17.80;99.90
51637;DHT22;37713;53.254;6.460;2023-09-19T12:27:49;17.80;99.90
51637;DHT22;37713;53.254;6.460;2023-09-19T12:30:28;17.70;99.90
51637;DHT22;37713;53.254;6.460;2023-09-19T12:32:54;17.60;99.90
51637;DHT22;37713;53.254;6.460;2023-09-19T12:35:33;17.50;99.90
51637;DHT22;37713;53.254;6.460;2023-09-19T12:38:04;17.30;99.90
51637;DHT22;37713;53.254;6.460;2023-09-19T12:40:32;17.10;99.90
51637;DHT22;37713;53.254;6.460;2023-09-19T12:43:05;17.00;99.90
51637;DHT22;37713;53.254;6.460;2023-09-19T12:45:31;17.10;99.90
51637;DHT22;37713;53.254;6.460;2023-09-19T12:48:20;17.20;99.90
51637;DHT22;37713;53.254;6.460;2023-09-19T12:53:38;17.40;99.90
51637;DHT22;37713;53.254;6.460;2023-09-19T12:56:14;17.50;99.90
51637;DHT22;37713;53.254;6.460;2023-09-19T12:58:54;17.50;99.90
51637;DHT22;37713;53.254;6.460;2023-09-19T13:01:25;17.50;99.90
51637;DHT22;37713;53.254;6.460;2023-09-19T13:04:18;17.60;99.90
51637;DHT22;37713;53.254;6.460;2023-09-19T13:06:52;17.50;99.90
51637;DHT22;37713;53.254;6.460;2023-09-19T13:09:19;17.50;99.90
51637;DHT22;37713;53.254;6.460;2023-09-19T13:11:46;17.50;99.90
51637;DHT22;37713;53.254;6.460;2023-09-19T13:14:24;17.50;99.90
51637;DHT22;37713;53.254;6.460;2023-09-19T13:19:44;17.50;99.90
51637;DHT22;37713;53.254;6.460;2023-09-19T13:22:40;17.40;99.90
51637;DHT22;37713;53.254;6.460;2023-09-19T13:25:15;17.40;99.90
51637;DHT22;37713;53.254;6.460;2023-09-19T13:27:48;17.20;99.90
51637;DHT22;37713;53.254;6.460;2023-09-19T13:30:17;17.10;99.90
51637;DHT22;37713;53.254;6.460;2023-09-19T13:32:43;17.00;99.90
51637;DHT22;37713;53.254;6.460;2023-09-19T13:35:10;16.90;99.90
51637;DHT22;37713;53.254;6.460;2023-09-19T13:37:38;16.90;99.90
51637;DHT22;37713;53.254;6.460;2023-09-19T13:40:10;16.90;99.90
51637;DHT22;37713;53.254;6.460;2023-09-19T13:42:37;16.90;99.90
51637;DHT22;37713;53.254;6.460;2023-09-19T13:45:04;16.90;99.90
51637;DHT22;37713;53.254;6.460;2023-09-19T13:47:33;16.90;99.90
51637;DHT22;37713;53.254;6.460;2023-09-19T13:50:01;17.00;99.90
51637;DHT22;37713;53.254;6.460;2023-09-19T13:52:29;17.00;99.90
51637;DHT22;37713;53.254;6.460;2023-09-19T13:54:56;17.10;99.90
51637;DHT22;37713;53.254;6.460;2023-09-19T13:57:25;17.20;99.90
51637;DHT22;37713;53.254;6.460;2023-09-19T13:59:52;17.30;99.90
51637;DHT22;37713;53.254;6.460;2023-09-19T14:02:19;17.40;99.90
51637;DHT22;37713;53.254;6.460;2023-09-19T14:04:44;17.50;99.90
51637;DHT22;37713;53.254;6.460;2023-09-19T14:07:10;17.50;99.90
51637;DHT22;37713;53.254;6.460;2023-09-19T14:09:37;17.60;99.90
51637;DHT22;37713;53.254;6.460;2023-09-19T14:12:03;17.60;99.90
51637;DHT22;37713;53.254;6.460;2023-09-19T14:14:29;17.70;99.90
51637;DHT22;37713;53.254;6.460;2023-09-19T14:16:55;17.70;99.90
51637;DHT22;37713;53.254;6.460;2023-09-19T14:19:21;17.80;99.90
51637;DHT22;37713;53.254;6.460;2023-09-19T14:21:47;17.80;99.90
51637;DHT22;37713;53.254;6.460;2023-09-19T14:24:19;17.80;99.90
51637;DHT22;37713;53.254;6.460;2023-09-19T14:26:45;17.80;99.90
51637;DHT22;37713;53.254;6.460;2023-09-19T14:29:11;17.90;99.90
51637;DHT22;37713;53.254;6.460;2023-09-19T14:31:38;17.90;99.90
51637;DHT22;37713;53.254;6.460;2023-09-19T14:34:06;17.90;99.90
51637;DHT22;37713;53.254;6.460;2023-09-19T14:36:32;17.80;99.90
51637;DHT22;37713;53.254;6.460;2023-09-19T14:38:59;17.80;99.90
51637;DHT22;37713;53.254;6.460;2023-09-19T14:41:25;17.70;99.90
51637;DHT22;37713;53.254;6.460;2023-09-19T14:43:54;17.60;99.90
51637;DHT22;37713;53.254;6.460;2023-09-19T14:46:23;17.50;99.90
51637;DHT22;37713;53.254;6.460;2023-09-19T14:48:52;17.40;99.90
51637;DHT22;37713;53.254;6.460;2023-09-19T14:51:18;17.30;99.90
51637;DHT22;37713;53.254;6.460;2023-09-19T14:53:45;17.30;99.90
51637;DHT22;37713;53.254;6.460;2023-09-19T14:56:12;17.20;99.90
51637;DHT22;37713;53.254;6.460;2023-09-19T14:58:41;17.10;99.90
51637;DHT22;37713;53.254;6.460;2023-09-19T15:01:12;17.10;99.90
51637;DHT22;37713;53.254;6.460;2023-09-19T15:03:40;17.10;99.90
51637;DHT22;37713;53.254;6.460;2023-09-19T15:06:15;17.10;99.90
51637;DHT22;37713;53.254;6.460;2023-09-19T15:08:45;17.00;99.90
51637;DHT22;37713;53.254;6.460;2023-09-19T15:11:16;17.00;99.90
51637;DHT22;37713;53.254;6.460;2023-09-19T15:13:44;16.90;99.90
51637;DHT22;37713;53.254;6.460;2023-09-19T15:16:10;16.90;99.90
51637;DHT22;37713;53.254;6.460;2023-09-19T15:21:06;16.80;99.90
51637;DHT22;37713;53.254;6.460;2023-09-19T15:23:33;16.80;99.90
51637;DHT22;37713;53.254;6.460;2023-09-19T15:26:07;16.70;99.90
51637;DHT22;37713;53.254;6.460;2023-09-19T15:28:40;16.80;99.90
51637;DHT22;37713;53.254;6.460;2023-09-19T15:31:08;16.70;99.90
51637;DHT22;37713;53.254;6.460;2023-09-19T15:33:34;16.70;99.90
51637;DHT22;37713;53.254;6.460;2023-09-19T15:38:30;16.60;99.90
51637;DHT22;37713;53.254;6.460;2023-09-19T15:40:57;16.50;99.90
51637;DHT22;37713;53.254;6.460;2023-09-19T15:43:23;16.50;99.90
51637;DHT22;37713;53.254;6.460;2023-09-19T15:45:49;16.50;99.90
51637;DHT22;37713;53.254;6.460;2023-09-19T15:48:15;16.40;99.90
51637;DHT22;37713;53.254;6.460;2023-09-19T15:50:42;16.40;99.90
51637;DHT22;37713;53.254;6.460;2023-09-19T15:53:10;16.40;99.90
51637;DHT22;37713;53.254;6.460;2023-09-19T15:55:41;16.40;99.90
51637;DHT22;37713;53.254;6.460;2023-09-19T15:58:07;16.40;99.90
51637;DHT22;37713;53.254;6.460;2023-09-19T16:00:33;16.40;99.90
51637;DHT22;37713;53.254;6.460;2023-09-19T16:03:02;16.50;99.90
51637;DHT22;37713;53.254;6.460;2023-09-19T16:05:35;16.40;99.90
51637;DHT22;37713;53.254;6.460;2023-09-19T16:08:06;16.50;99.90
51637;DHT22;37713;53.254;6.460;2023-09-19T16:10:36;16.40;99.90
51637;DHT22;37713;53.254;6.460;2023-09-19T16:13:06;16.50;99.90
51637;DHT22;37713;53.254;6.460;2023-09-19T16:15:32;16.50;99.90
51637;DHT22;37713;53.254;6.460;2023-09-19T16:17:58;16.40;99.90
51637;DHT22;37713;53.254;6.460;2023-09-19T16:20:26;16.40;99.90
51637;DHT22;37713;53.254;6.460;2023-09-19T16:22:53;16.40;99.90